createdAt,value
2018-02-07T00:00:54.249Z,37.67
2018-02-07T00:03:20.423Z,39.47
2018-02-07T00:05:46.655Z,39.97
2018-02-07T00:08:12.809Z,49.30
2018-02-07T00:10:39.008Z,38.78
2018-02-07T00:13:05.181Z,41.72
2018-02-07T00:15:31.373Z,47.97
2018-02-07T00:17:57.912Z,43.03
2018-02-07T00:20:24.841Z,42.25
2018-02-07T00:22:52.578Z,45.60
2018-02-07T00:25:18.904Z,43.75
2018-02-07T00:27:45.053Z,42.80
2018-02-07T00:30:11.268Z,46.90
2018-02-07T00:32:37.465Z,37.55
2018-02-07T00:35:18.555Z,41.80
2018-02-07T00:37:44.760Z,45.58
2018-02-07T00:40:11.670Z,40.75
2018-02-07T00:42:37.891Z,45.17
2018-02-07T00:45:04.076Z,44.90
2018-02-07T00:47:30.258Z,49.00
2018-02-07T00:49:56.405Z,48.22
2018-02-07T00:52:23.914Z,49.08
2018-02-07T00:54:50.066Z,47.47
2018-02-07T00:57:16.250Z,50.42
2018-02-07T00:59:42.431Z,42.65
2018-02-07T01:02:08.662Z,49.42
2018-02-07T01:04:34.835Z,44.90
2018-02-07T01:07:01.106Z,41.90
2018-02-07T01:09:27.303Z,42.92
2018-02-07T01:11:53.441Z,47.30
2018-02-07T01:14:19.624Z,48.55
2018-02-07T01:16:47.476Z,50.10
2018-02-07T01:19:13.654Z,44.28
2018-02-07T01:21:39.855Z,45.92
2018-02-07T01:24:06.088Z,41.90
2018-02-07T01:26:32.427Z,48.50
2018-02-07T01:28:58.702Z,49.22
2018-02-07T01:31:24.836Z,47.08
2018-02-07T01:33:50.974Z,48.00
2018-02-07T01:36:17.172Z,49.47
2018-02-07T01:38:43.325Z,54.50
2018-02-07T01:41:09.518Z,42.88
2018-02-07T01:43:35.658Z,47.13
2018-02-07T01:46:01.867Z,50.63
2018-02-07T01:48:28.004Z,46.63
2018-02-07T01:50:54.132Z,52.40
2018-02-07T01:53:20.316Z,48.45
2018-02-07T01:55:47.210Z,48.72
2018-02-07T01:58:13.759Z,50.42
2018-02-07T02:00:40.654Z,46.40
2018-02-07T02:03:06.889Z,45.65
2018-02-07T02:05:33.058Z,44.72
2018-02-07T02:07:59.241Z,47.47
2018-02-07T02:10:25.382Z,43.72
2018-02-07T02:12:51.570Z,46.67
2018-02-07T02:15:18.532Z,41.13
2018-02-07T02:17:44.746Z,51.45
2018-02-07T02:20:11.790Z,51.13
2018-02-07T02:22:37.950Z,49.40
2018-02-07T02:25:04.139Z,51.37
2018-02-07T02:27:30.373Z,44.60
2018-02-07T02:39:46.643Z,47.72
2018-02-07T02:42:13.536Z,46.92
2018-02-07T02:44:39.705Z,46.90
2018-02-07T02:47:05.877Z,42.83
2018-02-07T02:49:32.058Z,49.88
2018-02-07T02:51:58.322Z,48.42
2018-02-07T02:54:24.489Z,48.97
2018-02-07T02:56:50.661Z,56.47
2018-02-07T02:59:17.587Z,49.15
2018-02-07T03:01:43.744Z,49.67
2018-02-07T03:04:09.921Z,46.25
2018-02-07T03:06:36.090Z,47.80
2018-02-07T03:09:03.031Z,50.35
2018-02-07T03:11:29.979Z,47.28
2018-02-07T03:13:56.904Z,51.40
2018-02-07T03:16:23.110Z,49.67
2018-02-07T03:18:49.258Z,50.10
2018-02-07T03:21:16.882Z,50.60
2018-02-07T03:23:43.099Z,47.40
2018-02-07T03:26:09.302Z,48.85
2018-02-07T03:28:36.278Z,50.83
2018-02-07T03:31:02.542Z,47.38
2018-02-07T03:33:28.742Z,54.80
2018-02-07T03:35:54.938Z,47.28
2018-02-07T03:38:21.854Z,54.58
2018-02-07T03:40:48.274Z,45.47
2018-02-07T03:43:14.448Z,50.20
2018-02-07T03:45:41.399Z,56.72
2018-02-07T03:48:07.586Z,53.20
2018-02-07T03:50:33.769Z,53.67
2018-02-07T03:52:59.923Z,51.10
2018-02-07T03:55:26.151Z,58.08
2018-02-07T03:57:52.421Z,48.25
2018-02-07T04:00:19.575Z,53.95
2018-02-07T04:02:46.516Z,54.88
2018-02-07T04:05:13.508Z,51.47
2018-02-07T04:07:39.678Z,45.38
2018-02-07T04:10:05.868Z,54.42
2018-02-07T04:12:32.051Z,56.92
2018-02-07T04:14:58.982Z,51.58
2018-02-07T04:17:25.169Z,53.95
2018-02-07T04:19:51.328Z,49.15
2018-02-07T04:22:17.486Z,52.17
2018-02-07T04:24:46.384Z,51.42
2018-02-07T04:27:13.430Z,52.35
2018-02-07T04:29:40.355Z,50.45
2018-02-07T04:32:07.327Z,57.35
2018-02-07T04:34:34.239Z,50.53
2018-02-07T04:37:00.482Z,58.13
2018-02-07T04:39:27.399Z,51.35
2018-02-07T04:41:53.579Z,49.67
2018-02-07T04:44:20.505Z,55.55
2018-02-07T04:46:47.450Z,49.65
2018-02-07T04:49:14.350Z,44.55
2018-02-07T04:51:40.504Z,51.70
2018-02-07T04:54:06.666Z,51.40
2018-02-07T04:56:32.839Z,50.75
2018-02-07T04:58:59.242Z,57.65
2018-02-07T05:01:25.385Z,48.78
2018-02-07T05:03:51.946Z,63.72
2018-02-07T05:06:18.114Z,59.67
2018-02-07T05:08:45.042Z,53.00
2018-02-07T05:11:11.196Z,52.08
2018-02-07T05:13:37.414Z,46.10
2018-02-07T05:16:04.590Z,50.75
2018-02-07T05:18:30.739Z,55.40
2018-02-07T05:20:56.943Z,56.83
2018-02-07T05:23:23.096Z,56.90
2018-02-07T05:25:49.261Z,57.30
2018-02-07T05:28:15.430Z,55.55
2018-02-07T05:30:41.598Z,54.42
2018-02-07T05:33:07.801Z,54.67
2018-02-07T05:35:34.000Z,51.50
2018-02-07T05:38:00.240Z,51.22
2018-02-07T05:40:26.394Z,62.90
2018-02-07T05:42:52.569Z,48.70
2018-02-07T05:45:19.518Z,57.45
2018-02-07T05:47:46.466Z,49.40
2018-02-07T05:50:13.407Z,58.75
2018-02-07T05:52:40.286Z,51.37
2018-02-07T05:55:06.420Z,56.72
2018-02-07T05:57:32.581Z,52.42
2018-02-07T05:59:58.758Z,56.72
2018-02-07T06:02:24.927Z,69.40
2018-02-07T06:04:51.098Z,57.75
2018-02-07T06:07:18.011Z,55.20
2018-02-07T06:09:44.163Z,58.00
2018-02-07T06:12:11.053Z,58.45
2018-02-07T06:14:37.195Z,58.95
2018-02-07T06:17:03.340Z,61.78
2018-02-07T06:19:29.547Z,58.72
2018-02-07T06:21:55.700Z,56.75
2018-02-07T06:24:21.904Z,59.40
2018-02-07T06:26:48.073Z,57.08
2018-02-07T06:29:14.999Z,61.67
2018-02-07T06:31:41.199Z,60.05
2018-02-07T06:34:07.322Z,58.15
2018-02-07T06:36:33.585Z,56.30
2018-02-07T06:38:59.779Z,59.17
2018-02-07T06:41:25.986Z,57.70
2018-02-07T06:43:52.153Z,53.45
2018-02-07T06:46:18.328Z,54.33
2018-02-07T06:48:44.532Z,64.45
2018-02-07T06:51:11.500Z,71.20
2018-02-07T06:53:37.628Z,66.40
2018-02-07T06:56:03.810Z,71.45
2018-02-07T06:58:29.981Z,57.80
2018-02-07T07:00:56.860Z,64.68
2018-02-07T07:03:23.038Z,56.03
2018-02-07T07:05:49.966Z,63.90
2018-02-07T07:08:16.219Z,67.82
2018-02-07T07:10:43.155Z,58.75
2018-02-07T07:13:09.322Z,57.95
2018-02-07T07:15:35.492Z,52.40
2018-02-07T07:18:01.680Z,56.75
2018-02-07T07:20:27.804Z,58.78
2018-02-07T07:22:53.999Z,58.13
2018-02-07T07:25:20.879Z,66.72
2018-02-07T07:27:47.056Z,64.28
2018-02-07T07:30:13.273Z,61.80
2018-02-07T07:32:39.457Z,65.65
2018-02-07T07:35:05.640Z,62.70
2018-02-07T07:37:46.770Z,59.33
2018-02-07T07:40:14.626Z,62.85
2018-02-07T07:42:40.860Z,67.90
2018-02-07T07:45:07.062Z,56.88
2018-02-07T07:47:33.988Z,66.50
2018-02-07T07:50:00.193Z,57.70
2018-02-07T07:52:26.510Z,65.53
2018-02-07T07:54:54.570Z,58.33
2018-02-07T07:57:20.746Z,64.85
2018-02-07T07:59:47.690Z,63.25
2018-02-07T08:02:13.833Z,53.50
2018-02-07T08:04:40.801Z,61.78
2018-02-07T08:07:07.339Z,55.67
2018-02-07T08:09:33.513Z,66.57
2018-02-07T08:11:59.823Z,61.25
2018-02-07T08:14:26.014Z,54.63
2018-02-07T08:16:52.912Z,58.35
2018-02-07T08:19:19.065Z,60.85
2018-02-07T08:21:45.291Z,58.78
2018-02-07T08:24:11.422Z,62.65
2018-02-07T08:26:38.507Z,64.25
2018-02-07T08:29:04.949Z,52.75
2018-02-07T08:31:31.311Z,57.60
2018-02-07T08:33:57.512Z,56.88
2018-02-07T08:36:23.655Z,55.47
2018-02-07T08:38:49.825Z,54.30
2018-02-07T08:41:16.752Z,55.67
2018-02-07T08:43:42.949Z,57.75
2018-02-07T08:46:09.096Z,45.55
2018-02-07T08:48:35.287Z,54.63
2018-02-07T08:51:01.485Z,56.90
2018-02-07T08:53:28.397Z,56.97
2018-02-07T08:55:54.574Z,55.85
2018-02-07T08:58:21.459Z,61.13
2018-02-07T09:00:47.660Z,57.07
2018-02-07T09:03:13.792Z,54.53
2018-02-07T09:05:39.975Z,64.10
2018-02-07T09:08:07.622Z,51.30
2018-02-07T09:10:33.746Z,47.63
2018-02-07T09:13:00.203Z,55.90
2018-02-07T09:15:26.461Z,52.70
2018-02-07T09:17:52.650Z,51.40
2018-02-07T09:20:18.865Z,49.50
2018-02-07T09:22:45.391Z,54.17
2018-02-07T09:25:11.560Z,53.57
2018-02-07T09:27:38.454Z,50.57
2018-02-07T09:30:04.671Z,52.00
2018-02-07T09:32:31.042Z,51.60
2018-02-07T09:34:57.246Z,49.63
2018-02-07T09:37:23.379Z,46.03
2018-02-07T09:39:49.553Z,56.90
2018-02-07T09:42:16.529Z,55.10
2018-02-07T09:44:42.735Z,50.20
2018-02-07T09:47:09.690Z,48.80
2018-02-07T09:49:35.883Z,50.70
2018-02-07T09:52:02.964Z,55.83
2018-02-07T09:54:29.874Z,47.50
2018-02-07T09:56:56.036Z,48.27
2018-02-07T09:59:23.166Z,47.83
2018-02-07T10:01:49.353Z,76.70
2018-02-07T10:04:15.518Z,45.30
2018-02-07T10:06:41.908Z,53.30
2018-02-07T10:09:08.058Z,43.97
2018-02-07T10:11:34.226Z,45.67
2018-02-07T10:14:01.164Z,39.20
2018-02-07T10:16:28.881Z,46.57
2018-02-07T10:18:55.062Z,45.17
2018-02-07T10:21:21.960Z,46.00
2018-02-07T10:23:48.136Z,46.57
2018-02-07T10:26:15.035Z,46.23
2018-02-07T10:28:41.186Z,47.20
2018-02-07T10:31:08.154Z,44.60
2018-02-07T10:33:35.119Z,57.10
2018-02-07T10:36:01.351Z,52.07
2018-02-07T10:38:27.533Z,48.20
2018-02-07T10:40:53.718Z,43.43
2018-02-07T10:43:19.929Z,44.10
2018-02-07T10:45:46.141Z,46.83
2018-02-07T10:48:13.047Z,53.73
2018-02-07T10:50:39.293Z,47.37
2018-02-07T10:53:06.926Z,47.97
2018-02-07T10:55:33.081Z,44.40
2018-02-07T10:58:00.436Z,46.33
2018-02-07T11:00:27.725Z,52.47
2018-02-07T11:02:55.014Z,53.63
2018-02-07T11:05:21.178Z,43.90
2018-02-07T11:07:47.368Z,42.47
2018-02-07T11:10:13.571Z,49.43
2018-02-07T11:12:39.728Z,43.57
2018-02-07T11:15:05.966Z,45.30
2018-02-07T11:17:32.130Z,47.97
2018-02-07T11:19:59.046Z,46.47
2018-02-07T11:22:25.223Z,45.50
2018-02-07T11:24:51.373Z,45.10
2018-02-07T11:27:17.578Z,50.53
2018-02-07T11:29:43.788Z,45.77
2018-02-07T11:32:10.733Z,46.00
2018-02-07T11:34:37.605Z,47.70
2018-02-07T11:37:03.838Z,47.07
2018-02-07T11:39:30.081Z,49.17
2018-02-07T11:41:56.266Z,45.27
2018-02-07T11:44:22.818Z,40.87
2018-02-07T11:46:49.711Z,44.83
2018-02-07T11:49:15.933Z,47.80
2018-02-07T11:51:42.946Z,50.10
2018-02-07T11:54:09.147Z,57.90
2018-02-07T11:56:35.321Z,46.97
2018-02-07T11:59:01.514Z,51.67
2018-02-07T12:01:28.415Z,52.20
2018-02-07T12:03:54.604Z,46.23
2018-02-07T12:06:20.807Z,49.33
2018-02-07T12:08:47.712Z,50.40
2018-02-07T12:11:14.263Z,49.00
2018-02-07T12:13:40.499Z,49.00
2018-02-07T12:16:06.694Z,49.87
2018-02-07T12:18:32.864Z,56.47
2018-02-07T12:20:59.034Z,58.03
2018-02-07T12:23:25.221Z,57.93
2018-02-07T12:25:51.381Z,54.30
2018-02-07T12:28:17.562Z,56.87
2018-02-07T12:30:44.182Z,47.80
2018-02-07T12:33:10.797Z,57.43
2018-02-07T12:35:36.928Z,55.67
2018-02-07T12:38:03.140Z,54.40
2018-02-07T12:40:29.300Z,50.53
2018-02-07T12:42:55.474Z,54.63
2018-02-07T12:45:22.399Z,53.43
2018-02-07T12:47:48.578Z,49.10
2018-02-07T12:50:14.741Z,58.67
2018-02-07T12:52:40.964Z,62.47
2018-02-07T12:55:07.130Z,57.07
2018-02-07T12:57:34.053Z,53.40
2018-02-07T13:00:00.250Z,49.20
2018-02-07T13:02:26.396Z,52.03
2018-02-07T13:04:52.602Z,51.63
2018-02-07T13:07:18.745Z,60.67
2018-02-07T13:09:44.922Z,51.27
2018-02-07T13:12:11.493Z,50.53
2018-02-07T13:14:37.640Z,58.93
2018-02-07T13:17:04.563Z,50.57
2018-02-07T13:19:30.762Z,50.67
2018-02-07T13:21:57.625Z,51.97
2018-02-07T13:24:23.770Z,57.30
2018-02-07T13:26:49.946Z,49.63
2018-02-07T13:29:16.902Z,48.20
2018-02-07T13:31:43.811Z,49.87
2018-02-07T13:34:10.010Z,37.67
2018-02-07T13:36:36.237Z,44.50
2018-02-07T13:39:02.492Z,49.20
2018-02-07T13:41:28.759Z,51.80
2018-02-07T13:43:56.209Z,62.87
2018-02-07T13:46:23.134Z,59.33
2018-02-07T13:48:49.345Z,51.83
2018-02-07T13:51:15.573Z,66.73
2018-02-07T13:53:41.875Z,62.17
2018-02-07T13:56:09.010Z,57.00
2018-02-07T13:58:35.180Z,57.27
2018-02-07T14:01:01.439Z,51.83
2018-02-07T14:03:29.191Z,58.27
2018-02-07T14:05:55.406Z,50.47
2018-02-07T14:08:21.629Z,53.50
2018-02-07T14:10:47.858Z,54.23
2018-02-07T14:13:14.045Z,50.50
2018-02-07T14:15:40.945Z,54.20
2018-02-07T14:18:07.181Z,48.87
2018-02-07T14:20:33.702Z,49.80
2018-02-07T14:22:59.922Z,49.50
2018-02-07T14:25:26.141Z,52.27
2018-02-07T14:27:52.299Z,50.20
2018-02-07T14:30:18.855Z,51.10
2018-02-07T14:32:45.023Z,53.03
2018-02-07T14:35:11.235Z,52.67
2018-02-07T14:37:39.431Z,57.17
2018-02-07T14:40:06.019Z,66.67
2018-02-07T14:42:32.240Z,49.60
2018-02-07T14:44:58.428Z,51.63
2018-02-07T14:47:27.344Z,56.37
2018-02-07T14:49:53.575Z,52.60
2018-02-07T14:52:19.824Z,50.30
2018-02-07T14:54:46.013Z,49.13
2018-02-07T14:57:13.565Z,56.60
2018-02-07T14:59:39.751Z,51.90
2018-02-07T15:02:06.669Z,49.10
2018-02-07T15:04:32.834Z,55.47
2018-02-07T15:06:59.411Z,54.27
2018-02-07T15:09:25.938Z,50.40
2018-02-07T15:11:52.502Z,45.87
2018-02-07T15:14:19.446Z,43.97
2018-02-07T15:16:46.018Z,44.97
2018-02-07T15:19:12.204Z,47.70
2018-02-07T15:21:38.387Z,49.27
2018-02-07T15:24:05.318Z,42.63
2018-02-07T15:26:33.011Z,45.20
2018-02-07T15:28:59.203Z,44.90
2018-02-07T15:31:25.711Z,42.40
2018-02-07T15:33:51.880Z,54.57
2018-02-07T15:36:18.792Z,48.23
2018-02-07T15:38:45.424Z,41.80
2018-02-07T15:41:11.601Z,51.00
2018-02-07T15:43:38.565Z,49.40
2018-02-07T15:46:05.120Z,49.60
2018-02-07T15:48:31.300Z,56.13
2018-02-07T15:50:57.466Z,45.67
2018-02-07T15:53:23.678Z,50.10
2018-02-07T15:55:52.440Z,41.37
2018-02-07T15:58:19.836Z,47.87
2018-02-07T16:00:46.048Z,51.77
2018-02-07T16:03:12.965Z,55.17
2018-02-07T16:05:39.910Z,43.13
2018-02-07T16:08:06.512Z,59.33
2018-02-07T16:10:33.443Z,45.70
2018-02-07T16:12:59.814Z,41.93
2018-02-07T16:15:26.386Z,49.60
2018-02-07T16:17:54.233Z,48.07
2018-02-07T16:20:20.480Z,53.93
2018-02-07T16:22:48.405Z,55.67
2018-02-07T16:25:14.620Z,50.40
2018-02-07T16:27:40.840Z,44.77
2018-02-07T16:30:07.034Z,48.37
2018-02-07T16:32:33.997Z,58.13
2018-02-07T16:35:00.249Z,46.97
2018-02-07T16:37:27.203Z,57.47
2018-02-07T16:39:55.393Z,56.37
2018-02-07T16:42:22.019Z,57.43
2018-02-07T16:44:48.979Z,61.67
2018-02-07T16:47:30.094Z,64.53
2018-02-07T16:52:36.068Z,67.43
2018-02-07T16:55:03.012Z,72.77
2018-02-07T16:57:29.597Z,72.70
2018-02-07T16:59:56.555Z,66.03
2018-02-07T17:02:22.751Z,66.83
2018-02-07T17:04:48.955Z,68.23
2018-02-07T17:07:15.854Z,74.10
2018-02-07T17:09:42.026Z,81.37
2018-02-07T17:12:10.763Z,75.03
2018-02-07T17:14:36.956Z,76.70
2018-02-07T17:17:03.904Z,72.40
2018-02-07T17:19:30.114Z,77.33
2018-02-07T17:21:56.697Z,75.63
2018-02-07T17:24:22.881Z,70.30
2018-02-07T17:26:49.838Z,75.63
2018-02-07T17:29:16.360Z,67.33
2018-02-07T17:31:43.297Z,65.50
2018-02-07T17:34:09.490Z,69.00
2018-02-07T17:36:35.841Z,76.53
2018-02-07T17:39:02.143Z,68.03
2018-02-07T17:41:28.406Z,73.27
2018-02-07T17:43:54.651Z,77.75
2018-02-07T17:46:21.614Z,74.95
2018-02-07T17:48:47.842Z,66.18
2018-02-07T17:51:14.817Z,79.40
2018-02-07T17:53:41.042Z,70.73
2018-02-07T17:56:07.228Z,67.78
2018-02-07T17:58:33.440Z,76.43
2018-02-07T18:00:59.593Z,71.67
2018-02-07T18:03:26.611Z,84.45
2018-02-07T18:05:52.818Z,71.70
2018-02-07T18:08:19.040Z,69.17
2018-02-07T18:10:45.282Z,78.68
2018-02-07T18:13:11.516Z,77.90
2018-02-07T18:15:37.700Z,71.60
2018-02-07T18:18:03.906Z,79.27
2018-02-07T18:20:30.112Z,74.23
2018-02-07T18:22:56.358Z,81.60
2018-02-07T18:25:23.354Z,74.30
2018-02-07T18:27:49.534Z,81.53
2018-02-07T18:30:16.534Z,72.60
2018-02-07T18:32:42.729Z,76.78
2018-02-07T18:35:08.913Z,71.63
2018-02-07T18:37:35.140Z,79.55
2018-02-07T18:40:01.354Z,77.20
2018-02-07T18:42:27.530Z,74.10
2018-02-07T18:44:53.726Z,81.97
2018-02-07T18:47:19.938Z,83.80
2018-02-07T18:49:46.111Z,75.78
2018-02-07T18:52:13.100Z,85.80
2018-02-07T18:54:39.277Z,86.07
2018-02-07T18:57:06.218Z,80.05
2018-02-07T18:59:47.318Z,75.27
2018-02-07T19:02:14.343Z,74.47
2018-02-07T19:04:41.332Z,78.65
2018-02-07T19:07:08.292Z,76.57
2018-02-07T19:09:34.501Z,78.25
2018-02-07T19:12:00.681Z,65.67
2018-02-07T19:14:26.943Z,74.03
2018-02-07T19:16:53.824Z,71.12
2018-02-07T19:19:20.131Z,77.10
2018-02-07T19:21:46.352Z,74.18
2018-02-07T19:24:12.634Z,71.10
2018-02-07T19:26:38.852Z,72.15
2018-02-07T19:29:05.095Z,76.18
2018-02-07T19:31:31.373Z,77.90
2018-02-07T19:33:58.356Z,78.70
2018-02-07T19:36:25.301Z,74.40
2018-02-07T19:38:51.481Z,77.37
2018-02-07T19:41:18.057Z,68.28
2018-02-07T19:43:44.258Z,78.55
2018-02-07T19:46:10.520Z,71.80
2018-02-07T19:48:36.714Z,74.87
2018-02-07T19:51:03.706Z,86.12
2018-02-07T19:53:29.915Z,82.75
2018-02-07T19:55:56.128Z,85.05
2018-02-07T19:58:22.327Z,75.50
2018-02-07T20:00:48.567Z,80.05
2018-02-07T20:03:15.925Z,80.18
2018-02-07T20:05:42.921Z,75.62
2018-02-07T20:08:09.120Z,72.72
2018-02-07T20:10:35.357Z,74.57
2018-02-07T20:13:01.579Z,81.47
2018-02-07T20:15:27.805Z,78.28
2018-02-07T20:17:53.967Z,78.95
2018-02-07T20:20:20.204Z,80.35
2018-02-07T20:22:46.425Z,76.20
2018-02-07T20:25:12.648Z,82.28
2018-02-07T20:27:38.837Z,81.07
2018-02-07T20:30:05.852Z,84.90
2018-02-07T20:32:32.072Z,79.25
2018-02-07T20:34:58.251Z,77.78
2018-02-07T20:37:24.427Z,83.18
2018-02-07T20:39:51.417Z,77.03
2018-02-07T20:42:18.473Z,91.05
2018-02-07T20:44:44.658Z,77.37
2018-02-07T20:47:11.206Z,83.78
2018-02-07T20:49:38.073Z,77.12
2018-02-07T20:52:04.361Z,76.12
2018-02-07T20:54:31.013Z,82.57
2018-02-07T20:56:57.221Z,90.55
2018-02-07T20:59:23.682Z,77.43
2018-02-07T21:01:50.703Z,76.60
2018-02-07T21:04:16.935Z,88.70
2018-02-07T21:06:43.172Z,84.40
2018-02-07T21:09:09.371Z,85.25
2018-02-07T21:11:35.653Z,66.05
2018-02-07T21:14:01.844Z,78.00
2018-02-07T21:16:28.088Z,67.93
2018-02-07T21:18:54.271Z,71.70
2018-02-07T21:21:20.455Z,72.05
2018-02-07T21:24:01.610Z,76.90
2018-02-07T21:26:27.840Z,76.65
2018-02-07T21:28:54.042Z,67.93
2018-02-07T21:31:20.733Z,64.18
2018-02-07T21:33:47.034Z,60.33
2018-02-07T21:36:13.248Z,72.00
2018-02-07T21:38:39.846Z,66.43
2018-02-07T21:41:06.820Z,73.57
2018-02-07T21:43:34.023Z,66.70
2018-02-07T21:46:00.295Z,78.45
2018-02-07T21:48:26.466Z,48.30
2018-02-07T21:50:52.654Z,70.25
2018-02-07T21:53:18.854Z,62.60
2018-02-07T21:55:45.020Z,68.25
2018-02-07T21:58:11.214Z,64.12
2018-02-07T22:00:38.139Z,63.42
2018-02-07T22:03:04.340Z,65.70
2018-02-07T22:05:30.575Z,67.60
2018-02-07T22:07:56.746Z,70.32
2018-02-07T22:10:23.813Z,67.15
2018-02-07T22:12:50.777Z,69.85
2018-02-07T22:15:17.018Z,73.82
2018-02-07T22:17:43.217Z,75.15
2018-02-07T22:20:09.420Z,82.65
2018-02-07T22:22:35.623Z,85.90
2018-02-07T22:25:01.872Z,81.53
2018-02-07T22:27:28.072Z,84.43
2018-02-07T22:29:54.296Z,77.05
2018-02-07T22:32:20.555Z,73.90
2018-02-07T22:34:48.239Z,73.78
2018-02-07T22:37:15.156Z,74.57
2018-02-07T22:39:41.392Z,77.78
2018-02-07T22:42:07.601Z,69.10
2018-02-07T22:44:33.792Z,76.22
2018-02-07T22:46:59.957Z,75.47
2018-02-07T22:49:26.143Z,79.05
2018-02-07T22:51:52.334Z,69.57
2018-02-07T22:54:18.537Z,72.55
2018-02-07T22:56:44.779Z,72.57
2018-02-07T22:59:10.996Z,71.55
2018-02-07T23:01:37.162Z,68.85
2018-02-07T23:04:03.353Z,75.82
2018-02-07T23:06:29.561Z,63.92
2018-02-07T23:08:55.794Z,66.82
2018-02-07T23:11:22.695Z,75.45
2018-02-07T23:13:49.663Z,71.97
2018-02-07T23:16:15.842Z,65.97
2018-02-07T23:18:42.007Z,69.25
2018-02-07T23:21:08.883Z,72.03
2018-02-07T23:23:35.109Z,63.97
2018-02-07T23:26:01.305Z,70.25
2018-02-07T23:28:28.210Z,69.93
2018-02-07T23:30:54.382Z,62.83
2018-02-07T23:33:21.301Z,67.53
2018-02-07T23:35:47.510Z,68.28
2018-02-07T23:38:13.713Z,68.12
2018-02-07T23:40:39.885Z,84.62
2018-02-07T23:43:06.064Z,71.40
2018-02-07T23:45:32.225Z,65.28
2018-02-07T23:47:58.364Z,68.03
2018-02-07T23:50:24.546Z,65.72
2018-02-07T23:52:50.699Z,65.87
2018-02-07T23:55:16.923Z,69.15
2018-02-07T23:57:43.109Z,67.82
